Terminal Aerodrome Forecast
Issued by NWS

Home | Current Version | Previous Version | Text Only | Print | Product List | Glossary On
Versions: 1 2 3 4 5 6 7 8 9 10 11 12 13 14 15 16 17 18
000
FTUS43 KBIS 011731
TAFJMS
TAF
KJMS 011731Z 0118/0218 16010KT P6SM SCT150
     FM020000 13007KT P6SM FEW200
     FM021200 16010KT P6SM FEW010 SCT200=

USA.gov is the U.S. government's official web portal to all federal, state and local government web resources and services.